createdAt,value
2019-04-16T00:00:54.360Z,100474.98
2019-04-16T00:03:26.081Z,100482.23
2019-04-16T00:06:04.790Z,100483.02
2019-04-16T00:08:43.747Z,100473.80
2019-04-16T00:11:34.420Z,100476.27
2019-04-16T00:14:17.028Z,100471.56
2019-04-16T00:16:48.874Z,100469.58
2019-04-16T00:19:20.513Z,100462.34
2019-04-16T00:22:12.344Z,100459.52
2019-04-16T00:24:47.080Z,100460.72
2019-04-16T00:27:18.760Z,100458.75
2019-04-16T00:29:50.406Z,100462.13
2019-04-16T00:32:30.426Z,100457.81
2019-04-16T00:35:02.119Z,100457.49
2019-04-16T00:37:33.743Z,100448.94
2019-04-16T00:40:05.812Z,100447.18
2019-04-16T00:42:37.669Z,100446.91
2019-04-16T00:45:10.404Z,100441.64
2019-04-16T00:47:42.496Z,100434.89
2019-04-16T00:50:14.154Z,100431.98
2019-04-16T00:52:45.802Z,100428.24
2019-04-16T00:55:17.691Z,100431.94
2019-04-16T00:57:49.390Z,100424.38
2019-04-16T01:00:21.144Z,100422.47
2019-04-16T01:02:53.269Z,100422.31
2019-04-16T01:05:24.934Z,100419.21
2019-04-16T01:07:56.660Z,100422.20
2019-04-16T01:10:28.698Z,100419.95
2019-04-16T01:13:00.313Z,100426.12
2019-04-16T01:15:36.122Z,100426.16
2019-04-16T01:18:09.788Z,100424.11
2019-04-16T01:20:43.297Z,100421.23
2019-04-16T01:23:17.802Z,100421.43
2019-04-16T01:25:49.603Z,100422.48
2019-04-16T01:28:23.632Z,100418.86
2019-04-16T01:31:32.983Z,100422.11
2019-04-16T01:34:32.489Z,100413.15
2019-04-16T01:37:18.709Z,100404.45
2019-04-16T01:39:52.182Z,100403.81
2019-04-16T01:42:24.470Z,100408.48
2019-04-16T01:44:59.931Z,100403.66
2019-04-16T01:47:35.698Z,100411.05
2019-04-16T01:50:05.539Z,100408.89
2019-04-16T01:52:37.202Z,100408.78
2019-04-16T01:55:08.934Z,100411.80
2019-04-16T01:57:40.945Z,100411.72
2019-04-16T02:00:12.777Z,100409.41
2019-04-16T02:02:46.282Z,100411.87
2019-04-16T02:05:20.443Z,100405.58
2019-04-16T02:07:51.521Z,100407.23
2019-04-16T02:10:23.378Z,100402.32
2019-04-16T02:12:55.009Z,100404.82
2019-04-16T02:15:26.655Z,100404.38
2019-04-16T02:17:58.775Z,100406.09
2019-04-16T02:20:31.671Z,100411.66
2019-04-16T02:23:03.354Z,100412.02
2019-04-16T02:25:35.116Z,100414.11
2019-04-16T02:28:06.763Z,100406.67
2019-04-16T02:30:39.825Z,100404.47
2019-04-16T02:33:11.791Z,100408.80
2019-04-16T02:35:43.766Z,100407.03
2019-04-16T02:38:15.382Z,100410.11
2019-04-16T02:40:51.961Z,100408.39
2019-04-16T02:43:20.745Z,100412.92
2019-04-16T02:45:58.012Z,100417.45
2019-04-16T02:48:26.921Z,100418.09
2019-04-16T02:51:07.267Z,100416.53
2019-04-16T02:54:10.267Z,100419.34
2019-04-16T02:57:03.747Z,100414.64
2019-04-16T02:59:37.961Z,100415.98
2019-04-16T03:02:27.500Z,100408.59
2019-04-16T03:05:20.783Z,100411.61
2019-04-16T03:07:52.557Z,100413.81
2019-04-16T03:10:24.661Z,100417.33
2019-04-16T03:12:56.568Z,100411.77
2019-04-16T03:15:47.139Z,100412.21
2019-04-16T03:18:20.856Z,100410.09
2019-04-16T03:20:55.618Z,100407.02
2019-04-16T03:23:25.879Z,100405.22
2019-04-16T03:25:58.068Z,100399.95
2019-04-16T03:28:29.766Z,100405.97
2019-04-16T03:31:01.423Z,100397.27
2019-04-16T03:33:33.217Z,100404.17
2019-04-16T03:36:04.939Z,100399.84
2019-04-16T03:38:38.701Z,100399.84
2019-04-16T03:41:10.265Z,100399.44
2019-04-16T03:43:41.923Z,100397.79
2019-04-16T03:46:14.246Z,100395.33
2019-04-16T03:48:46.320Z,100392.75
2019-04-16T03:51:18.204Z,100394.09
2019-04-16T03:53:50.382Z,100393.69
2019-04-16T03:56:22.409Z,100396.83
2019-04-16T03:58:54.100Z,100392.45
2019-04-16T04:01:25.758Z,100393.31
2019-04-16T04:03:58.574Z,100392.38
2019-04-16T04:06:30.313Z,100392.00
2019-04-16T04:09:02.140Z,100386.77
2019-04-16T04:11:34.318Z,100397.69
2019-04-16T04:14:07.683Z,100396.37
2019-04-16T04:16:39.701Z,100409.45
2019-04-16T04:19:14.424Z,100411.20
2019-04-16T04:21:44.747Z,100413.82
2019-04-16T04:24:17.103Z,100418.23
2019-04-16T04:26:49.226Z,100413.48
2019-04-16T04:29:24.749Z,100420.09
2019-04-16T04:31:54.362Z,100424.95
2019-04-16T04:34:26.117Z,100421.10
2019-04-16T04:36:59.751Z,100426.37
2019-04-16T04:39:31.325Z,100425.10
2019-04-16T04:42:03.530Z,100423.45
2019-04-16T04:44:37.018Z,100430.52
2019-04-16T04:47:08.903Z,100429.91
2019-04-16T04:49:40.626Z,100432.88
2019-04-16T04:52:14.724Z,100438.83
2019-04-16T04:54:46.149Z,100446.49
2019-04-16T04:57:17.809Z,100447.56
2019-04-16T04:59:49.894Z,100442.81
2019-04-16T05:02:21.556Z,100449.24
2019-04-16T05:05:25.689Z,100446.94
2019-04-16T05:08:00.008Z,100449.90
2019-04-16T05:10:31.038Z,100449.97
2019-04-16T05:13:02.975Z,100449.86
2019-04-16T05:15:34.653Z,100455.44
2019-04-16T05:18:09.800Z,100456.26
2019-04-16T05:20:39.903Z,100458.84
2019-04-16T05:23:11.571Z,100462.72
2019-04-16T05:25:43.257Z,100466.23
2019-04-16T05:28:14.928Z,100460.04
2019-04-16T05:30:51.791Z,100466.54
2019-04-16T05:33:20.235Z,100472.52
2019-04-16T05:35:51.871Z,100482.05
2019-04-16T05:38:24.491Z,100487.20
2019-04-16T05:40:56.489Z,100490.61
2019-04-16T05:43:30.297Z,100488.34
2019-04-16T05:46:02.280Z,100500.34
2019-04-16T05:48:33.964Z,100505.02
2019-04-16T05:51:05.989Z,100515.33
2019-04-16T05:53:40.112Z,100514.81
2019-04-16T05:56:26.755Z,100512.06
2019-04-16T05:58:59.630Z,100517.56
2019-04-16T06:01:36.320Z,100516.56
2019-04-16T06:04:08.596Z,100521.64
2019-04-16T06:06:40.302Z,100521.50
2019-04-16T06:09:13.287Z,100525.24
2019-04-16T06:11:45.265Z,100528.98
2019-04-16T06:14:26.882Z,100530.14
2019-04-16T06:17:16.198Z,100523.42
2019-04-16T06:20:19.173Z,100520.09
2019-04-16T06:23:23.383Z,100519.98
2019-04-16T06:26:26.766Z,100518.89
2019-04-16T06:29:16.125Z,100519.07
2019-04-16T06:32:08.441Z,100517.91
2019-04-16T06:34:58.574Z,100512.27
2019-04-16T06:37:45.874Z,100501.10
2019-04-16T06:40:34.926Z,100496.92
2019-04-16T06:43:16.423Z,100497.75
2019-04-16T06:46:12.500Z,100487.38
2019-04-16T06:49:03.078Z,100488.41
2019-04-16T06:51:47.851Z,100484.16
2019-04-16T06:54:33.439Z,100474.80
2019-04-16T06:57:26.737Z,100479.94
2019-04-16T07:00:06.983Z,100484.60
2019-04-16T07:03:03.033Z,100480.54
2019-04-16T07:05:53.751Z,100490.45
2019-04-16T07:08:43.378Z,100497.84
2019-04-16T07:11:15.328Z,100510.58
2019-04-16T07:13:48.731Z,100519.06
2019-04-16T07:16:20.396Z,100518.80
2019-04-16T07:18:52.291Z,100501.13
2019-04-16T07:21:24.103Z,100497.52
2019-04-16T07:23:57.966Z,100490.55
2019-04-16T07:26:29.331Z,100494.03
2019-04-16T07:29:33.209Z,100503.09
2019-04-16T07:32:24.538Z,100508.63
2019-04-16T07:35:01.443Z,100500.08
2019-04-16T07:37:55.078Z,100496.84
2019-04-16T07:40:57.923Z,100494.05
2019-04-16T07:43:51.545Z,100496.06
2019-04-16T07:46:44.210Z,100500.66
2019-04-16T07:49:41.391Z,100501.80
2019-04-16T07:52:25.573Z,100496.33
2019-04-16T07:55:23.729Z,100487.22
2019-04-16T07:57:55.855Z,100491.29
2019-04-16T08:00:27.585Z,100496.73
2019-04-16T08:02:59.285Z,100489.94
2019-04-16T08:05:31.122Z,100494.07
2019-04-16T08:08:02.991Z,100499.75
2019-04-16T08:10:34.962Z,100499.94
2019-04-16T08:13:14.257Z,100497.72
2019-04-16T08:15:46.316Z,100506.42
2019-04-16T08:18:18.011Z,100498.02
2019-04-16T08:21:00.596Z,100495.03
2019-04-16T08:23:39.351Z,100492.47
2019-04-16T08:26:13.445Z,100493.91
2019-04-16T08:28:44.611Z,100502.38
2019-04-16T08:31:27.703Z,100501.13
2019-04-16T08:33:59.564Z,100498.13
2019-04-16T08:36:31.537Z,100497.73
2019-04-16T08:39:06.453Z,100494.78
2019-04-16T08:41:36.985Z,100488.81
2019-04-16T08:44:10.329Z,100490.30
2019-04-16T08:46:42.364Z,100506.13
2019-04-16T08:49:15.303Z,100503.41
2019-04-16T08:51:47.283Z,100501.06
2019-04-16T08:54:19.008Z,100491.34
2019-04-16T08:56:51.175Z,100495.73
2019-04-16T08:59:22.921Z,100497.42
2019-04-16T09:01:55.252Z,100494.34
2019-04-16T09:04:28.465Z,100486.00
2019-04-16T09:07:11.174Z,100491.27
2019-04-16T09:09:56.970Z,100484.63
2019-04-16T09:12:25.909Z,100489.57
2019-04-16T09:14:57.943Z,100486.48
2019-04-16T09:17:39.319Z,100486.55
2019-04-16T09:20:34.670Z,100489.50
2019-04-16T09:23:06.848Z,100491.23
2019-04-16T09:26:22.310Z,100488.53
2019-04-16T09:29:09.727Z,100484.69
2019-04-16T09:32:08.174Z,100483.30
2019-04-16T09:35:08.883Z,100486.45
2019-04-16T09:37:59.105Z,100485.52
2019-04-16T09:40:49.212Z,100484.63
2019-04-16T09:43:23.097Z,100478.17
2019-04-16T09:45:54.997Z,100487.34
2019-04-16T09:48:26.932Z,100482.84
2019-04-16T09:50:58.588Z,100489.28
2019-04-16T09:53:33.981Z,100480.83
2019-04-16T09:56:23.691Z,100478.83
2019-04-16T09:58:56.793Z,100476.05
2019-04-16T10:01:37.035Z,100478.86
2019-04-16T10:04:10.352Z,100481.44
2019-04-16T10:06:42.402Z,100478.30
2019-04-16T10:09:20.228Z,100470.20
2019-04-16T10:11:47.962Z,100478.27
2019-04-16T10:14:19.898Z,100478.16
2019-04-16T10:16:51.577Z,100479.48
2019-04-16T10:19:23.387Z,100475.02
2019-04-16T10:21:55.087Z,100474.84
2019-04-16T10:24:45.500Z,100480.78
2019-04-16T10:27:37.868Z,100482.28
2019-04-16T10:30:17.458Z,100477.63
2019-04-16T10:32:49.357Z,100473.27
2019-04-16T10:35:21.151Z,100471.89
2019-04-16T10:37:52.908Z,100476.24
2019-04-16T10:40:36.032Z,100470.16
2019-04-16T10:43:44.609Z,100475.74
2019-04-16T10:46:40.928Z,100478.16
2019-04-16T10:49:24.359Z,100476.53
2019-04-16T10:52:09.780Z,100472.23
2019-04-16T10:55:25.902Z,100473.14
2019-04-16T10:58:16.755Z,100465.62
2019-04-16T11:01:10.405Z,100465.81
2019-04-16T11:04:04.842Z,100461.28
2019-04-16T11:06:42.027Z,100459.16
2019-04-16T11:09:13.706Z,100462.95
2019-04-16T11:11:45.556Z,100459.42
2019-04-16T11:14:17.434Z,100457.07
2019-04-16T11:16:51.453Z,100461.25
2019-04-16T11:19:23.310Z,100454.23
2019-04-16T11:21:55.078Z,100464.09
2019-04-16T11:24:27.083Z,100456.92
2019-04-16T11:26:58.760Z,100457.54
2019-04-16T11:29:30.657Z,100454.06
2019-04-16T11:32:02.982Z,100445.66
2019-04-16T11:34:35.154Z,100452.34
2019-04-16T11:37:09.028Z,100451.52
2019-04-16T11:39:40.545Z,100447.95
2019-04-16T11:42:12.501Z,100438.75
2019-04-16T11:44:44.146Z,100435.34
2019-04-16T11:47:16.124Z,100441.37
2019-04-16T11:49:48.267Z,100438.70
2019-04-16T11:52:20.155Z,100440.89
2019-04-16T11:54:51.807Z,100445.02
2019-04-16T11:57:23.648Z,100439.87
2019-04-16T12:00:06.735Z,100442.32
2019-04-16T12:02:38.705Z,100442.59
2019-04-16T12:05:15.630Z,100446.27
2019-04-16T12:07:52.415Z,100449.24
2019-04-16T12:10:58.429Z,100448.30
2019-04-16T12:13:43.734Z,100450.16
2019-04-16T12:16:24.298Z,100452.71
2019-04-16T12:19:20.941Z,100450.06
2019-04-16T12:22:17.887Z,100455.78
2019-04-16T12:25:07.341Z,100454.45
2019-04-16T12:27:57.707Z,100449.72
2019-04-16T12:30:36.719Z,100448.38
2019-04-16T12:33:23.436Z,100453.95
2019-04-16T12:36:14.390Z,100456.84
2019-04-16T12:39:03.542Z,100454.36
2019-04-16T12:41:46.550Z,100454.16
2019-04-16T12:44:49.272Z,100456.80
2019-04-16T12:47:40.467Z,100455.73
2019-04-16T12:50:40.563Z,100461.80
2019-04-16T12:53:18.290Z,100460.09
2019-04-16T12:56:24.203Z,100457.06
2019-04-16T12:59:22.052Z,100452.00
2019-04-16T13:02:02.631Z,100453.56
2019-04-16T13:04:49.512Z,100448.98
2019-04-16T13:07:24.805Z,100443.87
2019-04-16T13:10:18.034Z,100448.72
2019-04-16T13:13:03.407Z,100451.02
2019-04-16T13:16:09.105Z,100450.80
2019-04-16T13:18:52.151Z,100451.88
2019-04-16T13:21:27.101Z,100452.48
2019-04-16T13:24:05.275Z,100450.45
2019-04-16T13:26:50.016Z,100452.49
2019-04-16T13:29:28.963Z,100453.60
2019-04-16T13:31:57.058Z,100449.72
2019-04-16T13:34:29.034Z,100451.53
2019-04-16T13:37:01.559Z,100450.80
2019-04-16T13:39:59.576Z,100449.09
2019-04-16T13:42:31.254Z,100447.17
2019-04-16T13:45:26.273Z,100449.34
2019-04-16T13:48:14.738Z,100456.84
2019-04-16T13:50:56.272Z,100452.62
2019-04-16T13:53:34.173Z,100455.98
2019-04-16T13:56:17.430Z,100451.50
2019-04-16T13:58:59.302Z,100451.50
2019-04-16T14:01:33.452Z,100454.17
2019-04-16T14:04:05.308Z,100452.62
2019-04-16T14:06:37.217Z,100453.09
2019-04-16T14:09:10.088Z,100446.81
2019-04-16T14:11:42.091Z,100450.33
2019-04-16T14:14:17.157Z,100449.95
2019-04-16T14:16:47.462Z,100444.48
2019-04-16T14:19:19.157Z,100442.56
2019-04-16T14:21:51.222Z,100444.64
2019-04-16T14:24:23.026Z,100441.61
2019-04-16T14:26:54.730Z,100435.77
2019-04-16T14:29:26.429Z,100434.20
2019-04-16T14:31:58.502Z,100432.76
2019-04-16T14:34:52.038Z,100434.94
2019-04-16T14:37:24.121Z,100434.83
2019-04-16T14:40:13.712Z,100435.66
2019-04-16T14:42:46.221Z,100433.58
2019-04-16T14:48:13.549Z,100426.95
2019-04-16T14:50:45.241Z,100420.16
2019-04-16T14:53:34.628Z,100425.00
2019-04-16T14:56:30.723Z,100426.22
2019-04-16T14:59:30.269Z,100424.52
2019-04-16T15:02:21.431Z,100430.57
2019-04-16T15:05:15.577Z,100432.38
2019-04-16T15:07:57.909Z,100427.04
2019-04-16T15:10:43.787Z,100430.06
2019-04-16T15:13:41.026Z,100429.59
2019-04-16T15:16:50.526Z,100432.14
2019-04-16T15:19:32.079Z,100437.21
2019-04-16T15:22:22.266Z,100435.18
2019-04-16T15:25:31.143Z,100438.81
2019-04-16T15:28:10.731Z,100434.45
2019-04-16T15:30:48.488Z,100438.44
2019-04-16T15:33:38.900Z,100437.23
2019-04-16T15:36:18.498Z,100436.64
2019-04-16T15:38:54.511Z,100434.09
2019-04-16T15:41:45.364Z,100436.64
2019-04-16T15:44:32.180Z,100445.81
2019-04-16T15:47:32.118Z,100446.55
2019-04-16T15:50:24.909Z,100448.47
2019-04-16T15:53:18.955Z,100443.40
2019-04-16T15:56:08.412Z,100443.87
2019-04-16T15:58:47.003Z,100448.98
2019-04-16T16:01:41.182Z,100448.48
2019-04-16T16:04:34.767Z,100444.83
2019-04-16T16:07:12.149Z,100447.02
2019-04-16T16:10:12.521Z,100442.91
2019-04-16T16:12:42.615Z,100445.83
2019-04-16T16:15:14.599Z,100446.91
2019-04-16T16:17:46.383Z,100448.00
2019-04-16T16:20:18.309Z,100450.30
2019-04-16T16:22:50.109Z,100454.15
2019-04-16T16:25:22.404Z,100461.55
2019-04-16T16:27:54.299Z,100452.97
2019-04-16T16:30:26.202Z,100458.41
2019-04-16T16:32:58.047Z,100452.34
2019-04-16T16:35:29.893Z,100452.96
2019-04-16T16:38:01.685Z,100462.39
2019-04-16T16:40:33.774Z,100458.64
2019-04-16T16:43:07.937Z,100463.81
2019-04-16T16:45:50.709Z,100467.95
2019-04-16T16:48:22.750Z,100470.72
2019-04-16T16:50:54.598Z,100476.40
2019-04-16T16:53:44.147Z,100475.66
2019-04-16T16:56:21.200Z,100475.87
2019-04-16T16:59:02.956Z,100479.84
2019-04-16T17:01:54.543Z,100477.05
2019-04-16T17:04:30.787Z,100476.41
2019-04-16T17:07:02.910Z,100474.95
2019-04-16T17:09:35.523Z,100483.19
2019-04-16T17:12:07.330Z,100482.91
2019-04-16T17:14:39.613Z,100489.67
2019-04-16T17:17:14.713Z,100486.03
2019-04-16T17:19:44.982Z,100493.88
2019-04-16T17:22:17.452Z,100489.28
2019-04-16T17:24:49.896Z,100489.25
2019-04-16T17:27:21.586Z,100491.02
2019-04-16T17:29:53.974Z,100499.45
2019-04-16T17:32:25.742Z,100499.17
2019-04-16T17:34:57.493Z,100507.32
2019-04-16T17:37:29.484Z,100511.00
2019-04-16T17:40:16.304Z,100517.23
2019-04-16T17:42:48.615Z,100520.31
2019-04-16T17:45:51.458Z,100526.30
2019-04-16T17:48:36.693Z,100529.98
2019-04-16T17:51:36.187Z,100535.68
2019-04-16T17:54:26.909Z,100535.82
2019-04-16T17:57:16.684Z,100540.55
2019-04-16T18:00:05.657Z,100548.69
2019-04-16T18:03:15.467Z,100553.55
2019-04-16T18:06:09.376Z,100561.08
2019-04-16T18:09:18.450Z,100575.70
2019-04-16T18:12:19.882Z,100584.30
2019-04-16T18:15:00.516Z,100600.86
2019-04-16T18:17:51.148Z,100607.44
2019-04-16T18:20:29.658Z,100616.56
2019-04-16T18:23:27.834Z,100624.09
2019-04-16T18:26:17.595Z,100626.56
2019-04-16T18:29:01.843Z,100639.61
2019-04-16T18:31:55.874Z,100647.37
2019-04-16T18:34:50.520Z,100650.22
2019-04-16T18:37:40.084Z,100660.92
2019-04-16T18:40:29.376Z,100659.88
2019-04-16T18:43:29.362Z,100666.67
2019-04-16T18:46:22.447Z,100667.81
2019-04-16T18:48:58.309Z,100675.58
2019-04-16T18:51:33.442Z,100683.99
2019-04-16T18:54:03.653Z,100687.66
2019-04-16T18:56:35.368Z,100688.71
2019-04-16T18:59:07.332Z,100688.05
2019-04-16T19:01:40.386Z,100698.81
2019-04-16T19:04:12.359Z,100696.36
2019-04-16T19:06:44.213Z,100701.35
2019-04-16T19:09:16.075Z,100705.05
2019-04-16T19:11:48.111Z,100707.86
2019-04-16T19:14:20.318Z,100710.31
2019-04-16T19:16:52.441Z,100710.86
2019-04-16T19:19:24.450Z,100707.47
2019-04-16T19:21:56.255Z,100705.05
2019-04-16T19:24:28.105Z,100715.31
2019-04-16T19:27:00.007Z,100718.87
2019-04-16T19:29:32.290Z,100721.87
2019-04-16T19:32:04.145Z,100725.78
2019-04-16T19:34:40.986Z,100728.69
2019-04-16T19:37:10.685Z,100725.05
2019-04-16T19:39:43.725Z,100725.85
2019-04-16T19:42:16.073Z,100727.89
2019-04-16T19:44:48.467Z,100732.11
2019-04-16T19:47:23.346Z,100736.16
2019-04-16T19:49:54.747Z,100735.33
2019-04-16T19:52:26.485Z,100742.48
2019-04-16T19:54:58.531Z,100749.16
2019-04-16T19:57:30.768Z,100748.77
2019-04-16T20:00:03.261Z,100750.59
2019-04-16T20:02:35.120Z,100744.20
2019-04-16T20:05:07.257Z,100747.48
2019-04-16T20:07:39.053Z,100749.31
2019-04-16T20:10:10.915Z,100750.34
2019-04-16T20:12:42.908Z,100741.81
2019-04-16T20:15:15.298Z,100749.06
2019-04-16T20:17:47.118Z,100752.70
2019-04-16T20:20:19.022Z,100750.23
2019-04-16T20:22:50.818Z,100747.73
2019-04-16T20:25:22.586Z,100752.27
2019-04-16T20:27:54.556Z,100751.95
2019-04-16T20:30:26.922Z,100752.58
2019-04-16T20:32:59.324Z,100745.66
2019-04-16T20:35:31.037Z,100745.77
2019-04-16T20:38:02.824Z,100745.83
2019-04-16T20:40:34.635Z,100747.62
2019-04-16T20:43:06.557Z,100749.01
2019-04-16T20:45:38.492Z,100745.51
2019-04-16T20:48:12.541Z,100749.94
2019-04-16T20:50:44.556Z,100748.25
2019-04-16T20:53:17.080Z,100754.86
2019-04-16T20:55:50.947Z,100748.72
2019-04-16T20:58:22.987Z,100751.03
2019-04-16T21:00:57.382Z,100746.53
2019-04-16T21:03:31.227Z,100740.02
2019-04-16T21:09:44.087Z,100747.57
2019-04-16T21:12:23.049Z,100739.09
2019-04-16T21:15:56.824Z,100741.52
2019-04-16T21:18:31.490Z,100739.02
2019-04-16T21:21:27.833Z,100721.70
2019-04-16T21:24:39.234Z,100731.72
2019-04-16T21:27:30.281Z,100749.34
2019-04-16T21:35:19.694Z,100753.77
2019-04-16T21:38:48.566Z,100748.73
2019-04-16T21:42:34.836Z,100763.38
2019-04-16T21:45:30.900Z,100769.61
2019-04-16T21:48:03.712Z,100772.95
2019-04-16T21:50:36.121Z,100771.06
2019-04-16T21:53:08.133Z,100770.80
2019-04-16T21:55:40.161Z,100776.97
2019-04-16T21:58:14.537Z,100775.66
2019-04-16T22:01:05.127Z,100774.43
2019-04-16T22:03:41.711Z,100780.00
2019-04-16T22:06:11.101Z,100778.27
2019-04-16T22:08:42.990Z,100785.49
2019-04-16T22:11:14.695Z,100784.17
2019-04-16T22:13:50.706Z,100780.67
2019-04-16T22:16:22.784Z,100778.34
2019-04-16T22:18:55.027Z,100781.47
2019-04-16T22:21:27.235Z,100783.95
2019-04-16T22:23:59.255Z,100783.02
2019-04-16T22:26:34.238Z,100784.74
2019-04-16T22:29:05.232Z,100779.47
2019-04-16T22:31:37.101Z,100785.73
2019-04-16T22:34:08.823Z,100784.57
2019-04-16T22:36:40.743Z,100795.34
2019-04-16T22:39:23.346Z,100794.09
2019-04-16T22:42:04.558Z,100794.95
2019-04-16T22:44:58.137Z,100792.31
2019-04-16T22:47:30.947Z,100784.86
2019-04-16T22:50:15.142Z,100785.72
2019-04-16T22:52:36.666Z,100796.33
2019-04-16T22:55:08.873Z,100789.27
2019-04-16T22:57:40.987Z,100795.88
2019-04-16T23:00:36.370Z,100798.05
2019-04-16T23:03:08.099Z,100797.48
2019-04-16T23:05:39.987Z,100805.41
2019-04-16T23:08:13.008Z,100805.73
2019-04-16T23:10:50.666Z,100807.13
2019-04-16T23:13:22.083Z,100811.08
2019-04-16T23:15:53.847Z,100810.68
2019-04-16T23:18:25.570Z,100812.68
2019-04-16T23:20:57.698Z,100810.14
2019-04-16T23:23:29.402Z,100806.55
2019-04-16T23:26:01.553Z,100809.98
2019-04-16T23:28:33.327Z,100809.52
2019-04-16T23:31:05.220Z,100809.06
2019-04-16T23:33:37.181Z,100811.45
2019-04-16T23:36:08.902Z,100806.40
2019-04-16T23:38:40.699Z,100810.17
2019-04-16T23:41:16.698Z,100805.58
2019-04-16T23:44:05.664Z,100809.20
2019-04-16T23:46:56.563Z,100805.31
2019-04-16T23:49:48.551Z,100800.98
2019-04-16T23:52:22.708Z,100803.47
2019-04-16T23:55:06.635Z,100806.96
2019-04-16T23:57:49.477Z,100810.00
